Kailua, HI

12:03 AM HST on October 23, 2014 (GMT -1000)
Kailua Beach | Change Station
CLOSE
Current Station
Personal Weather Station
Location: Kailua, HI
Elevation: 0 ft
Nearby Weather Stations

Elev 0 ft 21.40 °N, 157.73 °W | Updated 7 minutes ago

Partly Cloudy
Partly Cloudy
79.2 °F
Feels Like 83 °F
N
3.0
Wind Variable Wind from East
Gusts 6.0 mph

Today
High -- | Low -- °F
--% Chance of Precip.
Yesterday
High -- | Low -- °F
Precip. -- in
6:29 AM 6:00 PM
Waning Crescent, 0% visible
Pressure 30.00 in
Visibility 10.0 miles
Clouds Few 2000 ft
Few 3000 ft
Heat Index 83 °F
Dew Point 75 °F
Humidity 88%
Rainfall 0.34 in
Snow Depth Not available.
UV 0 out of 12
Pollen Not available.
Air Quality Not available.
Flu Activity Sporadic
METAR PHNG 230957Z 11004KT 10SM FEW020 FEW030 26/22 A3001 RMK AO2 SLP158 T02560222 402890244 $

More Conditions Fewer Conditions

Pressure 30.00 in
Visibility 10.0 miles
Clouds Few 2000 ft
Few 3000 ft
Heat Index 83 °F
Dew Point 75 °F
Humidity 88%
Rainfall 0.34 in
Snow Depth Not available.
UV 0 out of 12
Pollen Not available.
Air Quality Not available.
Flu Activity Sporadic
METAR PHNG 230957Z 11004KT 10SM FEW020 FEW030 26/22 A3001 RMK AO2 SLP158 T02560222 402890244 $

More Conditions Fewer Conditions

10-Day Weather Forecast

Almanac

Astronomy

Oct. 23, 2014 Rise Set
Actual Time 6:29 AM HST 6:00 PM HST
Civil Twilight 6:07 AM HST 6:22 PM HST
Nautical Twilight 5:41 AM HST 6:48 PM HST
Astronomical Twilight 5:15 AM HST 7:14 PM HST
Moon 6:22 AM HST 6:09 PM HST
Length of Visible Light 12h 15m
Length of Day
11h 30m
Tomorrow will be 1m 8s shorter.
Waning Crescent, 0% of the Moon is Illuminated
Today
Waning Crescent
Oct 23
New
Oct 30
First Quarter
Nov 6
Full
Nov 14
Last Quarter

Today's Extremes

State Highs State Lows

Community

WunderPhotos

Upload Photos

1,764,201 photos uploaded!

Nearby

Snow Depth

Station Depth Elevation
No new snow has been reported.

Earthquake Activity

City Distance Mag. Time & Date
No recent earthquake activity has been reported nearby.
Minimum magnitude displayed is 2.5.

Coastal Water Temperatures

Place Temperature
No Stations Reporting

Nearby Weather Stations